sensor_id;sensor_type;location;lat;lon;timestamp;pressure;altitude;pressure_sealevel;temperature;humidity
59391;BME280;53405;57.012;40.984;2023-01-28T00:00:19;100826.66;;;-2.28;84.30
59391;BME280;53405;57.012;40.984;2023-01-28T00:03:06;100808.34;;;-2.41;84.66
59391;BME280;53405;57.012;40.984;2023-01-28T00:06:01;100820.03;;;-2.33;84.82
59391;BME280;53405;57.012;40.984;2023-01-28T00:08:49;100832.03;;;-2.32;84.64
59391;BME280;53405;57.012;40.984;2023-01-28T00:11:37;100833.63;;;-2.30;84.73
59391;BME280;53405;57.012;40.984;2023-01-28T00:14:25;100827.53;;;-2.29;84.38
59391;BME280;53405;57.012;40.984;2023-01-28T00:17:13;100837.19;;;-2.32;84.80
59391;BME280;53405;57.012;40.984;2023-01-28T00:20:03;100838.72;;;-2.28;84.89
59391;BME280;53405;57.012;40.984;2023-01-28T00:22:50;100838.44;;;-2.22;85.27
59391;BME280;53405;57.012;40.984;2023-01-28T00:25:38;100834.31;;;-2.26;85.31
59391;BME280;53405;57.012;40.984;2023-01-28T00:28:26;100832.41;;;-2.23;84.56
59391;BME280;53405;57.012;40.984;2023-01-28T00:31:19;100831.28;;;-2.17;84.60
59391;BME280;53405;57.012;40.984;2023-01-28T00:34:08;100832.72;;;-2.29;84.75
59391;BME280;53405;57.012;40.984;2023-01-28T00:36:59;100841.09;;;-2.24;84.33
59391;BME280;53405;57.012;40.984;2023-01-28T00:39:48;100835.63;;;-2.17;83.98
59391;BME280;53405;57.012;40.984;2023-01-28T00:42:35;100840.06;;;-2.21;82.39
59391;BME280;53405;57.012;40.984;2023-01-28T00:45:23;100836.22;;;-2.30;82.62
59391;BME280;53405;57.012;40.984;2023-01-28T00:48:11;100840.28;;;-2.43;82.54
59391;BME280;53405;57.012;40.984;2023-01-28T00:50:58;100830.03;;;-2.45;82.81
59391;BME280;53405;57.012;40.984;2023-01-28T00:53:46;100844.47;;;-2.41;83.46
59391;BME280;53405;57.012;40.984;2023-01-28T00:56:34;100845.69;;;-2.30;82.35
59391;BME280;53405;57.012;40.984;2023-01-28T00:59:24;100847.94;;;-2.42;81.78
59391;BME280;53405;57.012;40.984;2023-01-28T01:02:13;100838.69;;;-2.46;81.20
59391;BME280;53405;57.012;40.984;2023-01-28T01:05:00;100853.25;;;-2.45;81.59
59391;BME280;53405;57.012;40.984;2023-01-28T01:07:49;100865.09;;;-2.41;82.25
59391;BME280;53405;57.012;40.984;2023-01-28T01:10:38;100847.13;;;-2.42;82.12
59391;BME280;53405;57.012;40.984;2023-01-28T01:13:25;100855.50;;;-2.56;82.67
59391;BME280;53405;57.012;40.984;2023-01-28T01:16:15;100858.34;;;-2.43;82.62
59391;BME280;53405;57.012;40.984;2023-01-28T01:19:03;100862.38;;;-2.38;81.34
59391;BME280;53405;57.012;40.984;2023-01-28T01:21:50;100864.66;;;-2.49;81.40
59391;BME280;53405;57.012;40.984;2023-01-28T01:24:38;100865.00;;;-2.57;82.79
59391;BME280;53405;57.012;40.984;2023-01-28T01:27:25;100861.00;;;-2.45;82.36
59391;BME280;53405;57.012;40.984;2023-01-28T01:30:14;100855.91;;;-2.46;81.17
59391;BME280;53405;57.012;40.984;2023-01-28T01:33:02;100848.53;;;-2.54;82.33
59391;BME280;53405;57.012;40.984;2023-01-28T01:35:55;100850.59;;;-2.43;82.21
59391;BME280;53405;57.012;40.984;2023-01-28T01:38:42;100863.34;;;-2.40;81.40
59391;BME280;53405;57.012;40.984;2023-01-28T01:41:31;100865.09;;;-2.41;82.00
59391;BME280;53405;57.012;40.984;2023-01-28T01:47:47;100872.63;;;-2.36;82.28
59391;BME280;53405;57.012;40.984;2023-01-28T01:50:42;100876.47;;;-2.45;81.60
59391;BME280;53405;57.012;40.984;2023-01-28T01:53:32;100853.72;;;-2.73;82.65
59391;BME280;53405;57.012;40.984;2023-01-28T01:56:22;100887.56;;;-2.43;81.97
59391;BME280;53405;57.012;40.984;2023-01-28T01:59:14;100889.38;;;-2.45;81.44
59391;BME280;53405;57.012;40.984;2023-01-28T02:02:06;100880.25;;;-2.52;81.42
59391;BME280;53405;57.012;40.984;2023-01-28T02:04:56;100876.91;;;-2.54;80.90
59391;BME280;53405;57.012;40.984;2023-01-28T02:07:45;100884.84;;;-2.59;81.40
59391;BME280;53405;57.012;40.984;2023-01-28T02:10:33;100875.06;;;-2.69;82.36
59391;BME280;53405;57.012;40.984;2023-01-28T02:13:26;100877.72;;;-2.71;81.99
59391;BME280;53405;57.012;40.984;2023-01-28T02:16:15;100855.06;;;-3.02;83.21
59391;BME280;53405;57.012;40.984;2023-01-28T02:19:06;100880.22;;;-2.69;82.99
59391;BME280;53405;57.012;40.984;2023-01-28T02:25:30;100888.91;;;-2.72;82.31
59391;BME280;53405;57.012;40.984;2023-01-28T02:31:10;100889.81;;;-2.92;82.77
59391;BME280;53405;57.012;40.984;2023-01-28T02:40:09;100883.28;;;-2.99;82.30
59391;BME280;53405;57.012;40.984;2023-01-28T02:42:57;100885.72;;;-3.15;83.02
59391;BME280;53405;57.012;40.984;2023-01-28T02:45:47;100889.66;;;-3.08;82.67
59391;BME280;53405;57.012;40.984;2023-01-28T02:48:53;100894.06;;;-3.10;82.69
59391;BME280;53405;57.012;40.984;2023-01-28T02:54:41;100892.03;;;-3.03;81.70
59391;BME280;53405;57.012;40.984;2023-01-28T03:00:27;100891.06;;;-3.20;83.11
59391;BME280;53405;57.012;40.984;2023-01-28T03:03:21;100892.53;;;-3.14;82.61
59391;BME280;53405;57.012;40.984;2023-01-28T03:06:16;100896.97;;;-3.18;83.90
59391;BME280;53405;57.012;40.984;2023-01-28T03:09:07;100904.09;;;-3.23;83.05
59391;BME280;53405;57.012;40.984;2023-01-28T03:12:19;100897.31;;;-3.25;83.54
59391;BME280;53405;57.012;40.984;2023-01-28T03:15:44;100901.63;;;-3.26;83.76
59391;BME280;53405;57.012;40.984;2023-01-28T03:18:51;100902.25;;;-3.21;82.73
59391;BME280;53405;57.012;40.984;2023-01-28T03:22:02;100899.72;;;-3.41;82.91
59391;BME280;53405;57.012;40.984;2023-01-28T03:25:10;100884.91;;;-3.57;82.56
59391;BME280;53405;57.012;40.984;2023-01-28T03:28:23;100907.13;;;-3.54;82.52
59391;BME280;53405;57.012;40.984;2023-01-28T03:31:30;100902.13;;;-3.57;83.71
59391;BME280;53405;57.012;40.984;2023-01-28T03:34:37;100909.72;;;-3.54;83.03
59391;BME280;53405;57.012;40.984;2023-01-28T03:37:45;100907.06;;;-3.53;83.37
59391;BME280;53405;57.012;40.984;2023-01-28T03:40:51;100887.00;;;-3.65;82.35
59391;BME280;53405;57.012;40.984;2023-01-28T03:43:41;100912.78;;;-3.67;82.23
59391;BME280;53405;57.012;40.984;2023-01-28T03:46:31;100897.03;;;-3.79;83.19
59391;BME280;53405;57.012;40.984;2023-01-28T03:49:20;100897.22;;;-3.84;83.57
59391;BME280;53405;57.012;40.984;2023-01-28T03:52:07;100913.09;;;-3.74;84.08
59391;BME280;53405;57.012;40.984;2023-01-28T03:54:55;100907.97;;;-3.74;85.71
59391;BME280;53405;57.012;40.984;2023-01-28T03:57:44;100924.97;;;-3.70;85.48
59391;BME280;53405;57.012;40.984;2023-01-28T04:00:32;100919.03;;;-3.72;85.37
59391;BME280;53405;57.012;40.984;2023-01-28T04:03:20;100926.50;;;-3.66;85.42
59391;BME280;53405;57.012;40.984;2023-01-28T04:06:20;100919.38;;;-3.59;84.26
59391;BME280;53405;57.012;40.984;2023-01-28T04:09:16;100915.75;;;-3.76;85.01
59391;BME280;53405;57.012;40.984;2023-01-28T04:12:13;100928.19;;;-3.65;84.22
59391;BME280;53405;57.012;40.984;2023-01-28T04:15:07;100926.03;;;-3.76;83.29
59391;BME280;53405;57.012;40.984;2023-01-28T04:18:04;100925.66;;;-3.87;83.53
59391;BME280;53405;57.012;40.984;2023-01-28T04:20:53;100930.56;;;-3.81;84.88
59391;BME280;53405;57.012;40.984;2023-01-28T04:23:41;100933.53;;;-3.70;83.93
59391;BME280;53405;57.012;40.984;2023-01-28T04:26:32;100926.03;;;-3.76;84.26
59391;BME280;53405;57.012;40.984;2023-01-28T04:29:22;100931.84;;;-3.71;84.22
59391;BME280;53405;57.012;40.984;2023-01-28T04:32:11;100933.06;;;-3.79;84.94
59391;BME280;53405;57.012;40.984;2023-01-28T04:35:14;100935.53;;;-3.76;84.08
59391;BME280;53405;57.012;40.984;2023-01-28T04:38:21;100924.63;;;-3.83;84.53
59391;BME280;53405;57.012;40.984;2023-01-28T04:41:26;100923.03;;;-3.86;83.53
59391;BME280;53405;57.012;40.984;2023-01-28T04:44:18;100948.75;;;-3.86;83.30
59391;BME280;53405;57.012;40.984;2023-01-28T04:47:34;100942.47;;;-4.01;84.00
59391;BME280;53405;57.012;40.984;2023-01-28T04:50:35;100952.69;;;-3.99;83.74
59391;BME280;53405;57.012;40.984;2023-01-28T04:53:52;100948.41;;;-3.98;83.29
59391;BME280;53405;57.012;40.984;2023-01-28T04:56:49;100947.69;;;-4.02;83.18
59391;BME280;53405;57.012;40.984;2023-01-28T04:59:38;100912.28;;;-4.18;83.44
59391;BME280;53405;57.012;40.984;2023-01-28T05:02:27;100948.31;;;-4.18;83.22
59391;BME280;53405;57.012;40.984;2023-01-28T05:05:14;100954.63;;;-4.26;83.92
59391;BME280;53405;57.012;40.984;2023-01-28T05:08:17;100951.22;;;-4.27;83.83
59391;BME280;53405;57.012;40.984;2023-01-28T05:11:06;100949.06;;;-4.15;82.37
59391;BME280;53405;57.012;40.984;2023-01-28T05:13:54;100951.13;;;-4.24;82.33
59391;BME280;53405;57.012;40.984;2023-01-28T05:16:42;100949.50;;;-4.26;82.31
59391;BME280;53405;57.012;40.984;2023-01-28T05:19:30;100956.19;;;-4.44;83.41
59391;BME280;53405;57.012;40.984;2023-01-28T05:22:19;100952.03;;;-4.48;83.09
59391;BME280;53405;57.012;40.984;2023-01-28T05:25:26;100956.06;;;-4.41;82.63
59391;BME280;53405;57.012;40.984;2023-01-28T05:28:16;100947.63;;;-4.45;82.81
59391;BME280;53405;57.012;40.984;2023-01-28T05:31:05;100939.59;;;-4.37;82.70
59391;BME280;53405;57.012;40.984;2023-01-28T05:33:53;100947.25;;;-4.36;82.62
59391;BME280;53405;57.012;40.984;2023-01-28T05:36:41;100946.22;;;-4.30;82.75
59391;BME280;53405;57.012;40.984;2023-01-28T05:39:47;100948.78;;;-4.30;82.34
59391;BME280;53405;57.012;40.984;2023-01-28T05:42:34;100954.13;;;-4.58;83.08
59391;BME280;53405;57.012;40.984;2023-01-28T05:45:42;100952.31;;;-4.56;82.86
59391;BME280;53405;57.012;40.984;2023-01-28T05:48:39;100959.00;;;-4.50;82.62
59391;BME280;53405;57.012;40.984;2023-01-28T05:51:45;100946.66;;;-4.42;82.55
59391;BME280;53405;57.012;40.984;2023-01-28T05:54:38;100936.69;;;-4.50;82.94
59391;BME280;53405;57.012;40.984;2023-01-28T05:57:26;100963.16;;;-4.48;82.68
59391;BME280;53405;57.012;40.984;2023-01-28T06:00:14;100940.06;;;-4.49;82.13
59391;BME280;53405;57.012;40.984;2023-01-28T06:03:03;100962.28;;;-4.47;82.34
59391;BME280;53405;57.012;40.984;2023-01-28T06:05:54;100976.94;;;-4.49;81.60
59391;BME280;53405;57.012;40.984;2023-01-28T06:08:41;100980.16;;;-4.67;81.33
59391;BME280;53405;57.012;40.984;2023-01-28T06:11:30;100974.34;;;-4.96;82.45
59391;BME280;53405;57.012;40.984;2023-01-28T06:14:21;100987.53;;;-5.05;83.33
59391;BME280;53405;57.012;40.984;2023-01-28T06:17:29;100981.81;;;-5.14;83.44
59391;BME280;53405;57.012;40.984;2023-01-28T06:20:33;100998.13;;;-5.15;83.66
59391;BME280;53405;57.012;40.984;2023-01-28T06:23:21;100978.59;;;-5.20;83.91
59391;BME280;53405;57.012;40.984;2023-01-28T06:26:08;100981.88;;;-5.15;83.99
59391;BME280;53405;57.012;40.984;2023-01-28T06:28:59;100999.09;;;-4.94;84.17
59391;BME280;53405;57.012;40.984;2023-01-28T06:31:47;101002.81;;;-4.77;84.48
59391;BME280;53405;57.012;40.984;2023-01-28T06:34:35;100995.03;;;-4.76;83.25
59391;BME280;53405;57.012;40.984;2023-01-28T06:37:23;100983.28;;;-4.83;83.46
59391;BME280;53405;57.012;40.984;2023-01-28T06:40:12;100994.31;;;-4.79;82.61
59391;BME280;53405;57.012;40.984;2023-01-28T06:43:00;100999.53;;;-4.81;83.47
59391;BME280;53405;57.012;40.984;2023-01-28T06:45:47;100988.75;;;-4.68;83.42
59391;BME280;53405;57.012;40.984;2023-01-28T06:48:35;100989.19;;;-4.56;83.19
59391;BME280;53405;57.012;40.984;2023-01-28T06:51:22;100995.59;;;-4.44;82.57
59391;BME280;53405;57.012;40.984;2023-01-28T06:54:10;100997.00;;;-4.59;81.99
59391;BME280;53405;57.012;40.984;2023-01-28T06:56:58;100963.31;;;-5.00;82.39
59391;BME280;53405;57.012;40.984;2023-01-28T06:59:45;100998.19;;;-4.93;82.58
59391;BME280;53405;57.012;40.984;2023-01-28T07:02:33;101002.47;;;-4.92;83.27
59391;BME280;53405;57.012;40.984;2023-01-28T07:05:23;101007.50;;;-4.88;83.31
59391;BME280;53405;57.012;40.984;2023-01-28T07:08:10;101011.16;;;-4.96;83.45
59391;BME280;53405;57.012;40.984;2023-01-28T07:10:58;101005.81;;;-4.90;84.26
59391;BME280;53405;57.012;40.984;2023-01-28T07:13:47;101017.31;;;-4.76;84.03
59391;BME280;53405;57.012;40.984;2023-01-28T07:16:35;101007.09;;;-4.78;83.85
59391;BME280;53405;57.012;40.984;2023-01-28T07:19:23;101015.75;;;-4.80;83.03
59391;BME280;53405;57.012;40.984;2023-01-28T07:22:10;101021.41;;;-4.70;84.11
59391;BME280;53405;57.012;40.984;2023-01-28T07:24:59;101030.88;;;-4.71;84.91
59391;BME280;53405;57.012;40.984;2023-01-28T07:27:51;101027.22;;;-4.65;84.15
59391;BME280;53405;57.012;40.984;2023-01-28T07:30:39;101024.97;;;-4.75;84.31
59391;BME280;53405;57.012;40.984;2023-01-28T07:33:26;101026.13;;;-4.58;82.18
59391;BME280;53405;57.012;40.984;2023-01-28T07:36:13;101008.56;;;-4.70;81.07
59391;BME280;53405;57.012;40.984;2023-01-28T07:39:01;101008.41;;;-4.66;81.34
59391;BME280;53405;57.012;40.984;2023-01-28T07:41:49;101017.31;;;-4.53;81.18
59391;BME280;53405;57.012;40.984;2023-01-28T07:44:56;101017.91;;;-4.68;82.19
59391;BME280;53405;57.012;40.984;2023-01-28T07:47:43;101025.28;;;-4.59;82.15
59391;BME280;53405;57.012;40.984;2023-01-28T07:50:34;101026.94;;;-4.58;82.39
59391;BME280;53405;57.012;40.984;2023-01-28T07:53:22;101018.97;;;-4.50;81.67
59391;BME280;53405;57.012;40.984;2023-01-28T07:56:09;101012.06;;;-4.49;81.64
59391;BME280;53405;57.012;40.984;2023-01-28T07:58:57;101000.72;;;-4.44;81.27
59391;BME280;53405;57.012;40.984;2023-01-28T08:01:44;101027.00;;;-4.36;81.40
59391;BME280;53405;57.012;40.984;2023-01-28T08:04:32;101013.59;;;-4.44;80.83
59391;BME280;53405;57.012;40.984;2023-01-28T08:07:20;101021.63;;;-4.53;81.27
59391;BME280;53405;57.012;40.984;2023-01-28T08:10:08;101010.41;;;-4.50;81.84
59391;BME280;53405;57.012;40.984;2023-01-28T08:12:57;100995.97;;;-4.55;82.13
59391;BME280;53405;57.012;40.984;2023-01-28T08:15:47;101012.38;;;-4.33;81.77
59391;BME280;53405;57.012;40.984;2023-01-28T08:18:35;101011.91;;;-4.45;80.99
59391;BME280;53405;57.012;40.984;2023-01-28T08:21:22;100988.09;;;-4.74;81.74
59391;BME280;53405;57.012;40.984;2023-01-28T08:24:10;101007.69;;;-4.69;81.77
59391;BME280;53405;57.012;40.984;2023-01-28T08:26:58;101008.38;;;-4.90;82.20
59391;BME280;53405;57.012;40.984;2023-01-28T08:29:45;101009.97;;;-4.85;82.98
59391;BME280;53405;57.012;40.984;2023-01-28T08:32:33;100998.31;;;-4.96;82.78
59391;BME280;53405;57.012;40.984;2023-01-28T08:35:21;101008.28;;;-4.86;83.14
59391;BME280;53405;57.012;40.984;2023-01-28T08:38:11;100996.94;;;-4.81;83.27
59391;BME280;53405;57.012;40.984;2023-01-28T08:40:59;100996.44;;;-4.67;83.75
59391;BME280;53405;57.012;40.984;2023-01-28T08:43:47;101001.84;;;-4.51;82.86
59391;BME280;53405;57.012;40.984;2023-01-28T08:46:34;100990.22;;;-4.38;81.81
59391;BME280;53405;57.012;40.984;2023-01-28T08:49:22;100998.16;;;-4.44;82.25
59391;BME280;53405;57.012;40.984;2023-01-28T08:52:09;100997.00;;;-4.59;82.29
59391;BME280;53405;57.012;40.984;2023-01-28T08:54:57;100995.22;;;-4.57;83.62
59391;BME280;53405;57.012;40.984;2023-01-28T08:57:44;100959.44;;;-4.63;81.89
59391;BME280;53405;57.012;40.984;2023-01-28T09:00:33;100965.47;;;-4.64;81.50
59391;BME280;53405;57.012;40.984;2023-01-28T09:03:21;100983.69;;;-4.70;84.50
59391;BME280;53405;57.012;40.984;2023-01-28T09:06:09;100983.69;;;-4.46;84.37
59391;BME280;53405;57.012;40.984;2023-01-28T09:08:57;100967.03;;;-4.60;83.65
59391;BME280;53405;57.012;40.984;2023-01-28T09:11:45;100954.56;;;-4.47;82.33
59391;BME280;53405;57.012;40.984;2023-01-28T09:14:32;100961.81;;;-4.34;81.91
59391;BME280;53405;57.012;40.984;2023-01-28T09:17:20;100966.72;;;-4.28;81.47
59391;BME280;53405;57.012;40.984;2023-01-28T09:20:08;100957.50;;;-4.34;81.83
59391;BME280;53405;57.012;40.984;2023-01-28T09:23:00;100957.09;;;-4.23;81.77
59391;BME280;53405;57.012;40.984;2023-01-28T09:25:50;100974.88;;;-4.17;80.62
59391;BME280;53405;57.012;40.984;2023-01-28T09:28:51;100962.72;;;-4.59;82.64
59391;BME280;53405;57.012;40.984;2023-01-28T09:31:40;100964.50;;;-4.38;82.35
59391;BME280;53405;57.012;40.984;2023-01-28T09:34:28;100963.50;;;-4.33;83.53
59391;BME280;53405;57.012;40.984;2023-01-28T09:37:15;100960.63;;;-4.49;82.87
59391;BME280;53405;57.012;40.984;2023-01-28T09:40:05;100960.59;;;-4.48;80.52
59391;BME280;53405;57.012;40.984;2023-01-28T09:43:01;100962.28;;;-4.47;81.02
59391;BME280;53405;57.012;40.984;2023-01-28T09:45:58;100957.97;;;-4.46;81.98
59391;BME280;53405;57.012;40.984;2023-01-28T09:48:51;100972.81;;;-4.31;81.17
59391;BME280;53405;57.012;40.984;2023-01-28T09:51:42;100960.13;;;-4.36;81.61
59391;BME280;53405;57.012;40.984;2023-01-28T09:54:39;100947.28;;;-4.13;83.16
59391;BME280;53405;57.012;40.984;2023-01-28T09:57:42;100964.78;;;-4.45;81.35
59391;BME280;53405;57.012;40.984;2023-01-28T10:06:54;100941.34;;;-4.38;79.27
59391;BME280;53405;57.012;40.984;2023-01-28T10:18:57;100955.25;;;-4.65;80.79
59391;BME280;53405;57.012;40.984;2023-01-28T10:21:54;100943.28;;;-4.66;81.05
59391;BME280;53405;57.012;40.984;2023-01-28T10:24:56;100944.66;;;-4.58;80.34
59391;BME280;53405;57.012;40.984;2023-01-28T10:27:52;100925.88;;;-4.82;81.51
59391;BME280;53405;57.012;40.984;2023-01-28T10:30:41;100941.41;;;-4.85;83.01
59391;BME280;53405;57.012;40.984;2023-01-28T10:33:37;100915.06;;;-4.68;81.61
59391;BME280;53405;57.012;40.984;2023-01-28T10:36:26;100920.72;;;-4.58;80.44
59391;BME280;53405;57.012;40.984;2023-01-28T10:39:15;100917.53;;;-4.65;81.93
59391;BME280;53405;57.012;40.984;2023-01-28T10:42:28;100914.75;;;-4.37;81.04
59391;BME280;53405;57.012;40.984;2023-01-28T10:45:31;100916.38;;;-4.58;79.64
59391;BME280;53405;57.012;40.984;2023-01-28T10:48:53;100903.19;;;-4.48;81.18
59391;BME280;53405;57.012;40.984;2023-01-28T10:51:44;100906.09;;;-4.58;80.61
59391;BME280;53405;57.012;40.984;2023-01-28T10:54:35;100899.19;;;-4.56;80.73
59391;BME280;53405;57.012;40.984;2023-01-28T10:57:23;100904.94;;;-4.49;80.50
59391;BME280;53405;57.012;40.984;2023-01-28T11:00:17;100908.44;;;-4.51;82.34
59391;BME280;53405;57.012;40.984;2023-01-28T11:03:17;100911.81;;;-4.73;83.10
59391;BME280;53405;57.012;40.984;2023-01-28T11:06:05;100902.84;;;-4.85;83.36
59391;BME280;53405;57.012;40.984;2023-01-28T11:08:55;100897.09;;;-4.92;83.99
59391;BME280;53405;57.012;40.984;2023-01-28T11:11:44;100896.81;;;-4.84;84.15
59391;BME280;53405;57.012;40.984;2023-01-28T11:14:32;100903.34;;;-4.75;84.87
59391;BME280;53405;57.012;40.984;2023-01-28T11:17:21;100902.13;;;-4.65;82.25
59391;BME280;53405;57.012;40.984;2023-01-28T11:20:25;100908.19;;;-4.67;83.39
59391;BME280;53405;57.012;40.984;2023-01-28T11:23:31;100894.00;;;-4.78;81.56
59391;BME280;53405;57.012;40.984;2023-01-28T11:26:28;100899.63;;;-4.90;83.33
59391;BME280;53405;57.012;40.984;2023-01-28T11:29:29;100901.84;;;-4.81;81.46
59391;BME280;53405;57.012;40.984;2023-01-28T11:32:19;100910.13;;;-4.96;81.22
59391;BME280;53405;57.012;40.984;2023-01-28T11:35:07;100902.69;;;-4.80;84.68
59391;BME280;53405;57.012;40.984;2023-01-28T11:37:56;100888.84;;;-4.78;82.69
59391;BME280;53405;57.012;40.984;2023-01-28T11:40:55;100900.38;;;-4.88;84.08
59391;BME280;53405;57.012;40.984;2023-01-28T11:43:43;100893.06;;;-4.75;82.81
59391;BME280;53405;57.012;40.984;2023-01-28T11:46:50;100872.91;;;-4.86;82.25
59391;BME280;53405;57.012;40.984;2023-01-28T11:53:15;100892.13;;;-4.73;83.69
59391;BME280;53405;57.012;40.984;2023-01-28T12:05:53;100874.78;;;-4.67;84.05
59391;BME280;53405;57.012;40.984;2023-01-28T12:08:51;100850.00;;;-4.70;83.24
59391;BME280;53405;57.012;40.984;2023-01-28T12:11:56;100884.38;;;-4.49;84.02
59391;BME280;53405;57.012;40.984;2023-01-28T12:18:18;100881.19;;;-4.33;83.46
59391;BME280;53405;57.012;40.984;2023-01-28T12:21:57;100872.56;;;-3.90;81.30
59391;BME280;53405;57.012;40.984;2023-01-28T12:25:08;100876.56;;;-4.25;82.92
59391;BME280;53405;57.012;40.984;2023-01-28T12:28:32;100875.13;;;-4.77;83.29
59391;BME280;53405;57.012;40.984;2023-01-28T12:31:35;100888.59;;;-4.48;84.68
59391;BME280;53405;57.012;40.984;2023-01-28T12:37:24;100881.66;;;-4.68;81.35
59391;BME280;53405;57.012;40.984;2023-01-28T12:43:54;100891.56;;;-4.81;82.48
59391;BME280;53405;57.012;40.984;2023-01-28T12:53:38;100875.78;;;-4.72;81.78
59391;BME280;53405;57.012;40.984;2023-01-28T12:56:32;100860.16;;;-4.89;82.84
59391;BME280;53405;57.012;40.984;2023-01-28T12:59:26;100857.66;;;-4.91;82.73
59391;BME280;53405;57.012;40.984;2023-01-28T13:02:26;100861.16;;;-4.69;83.52
59391;BME280;53405;57.012;40.984;2023-01-28T13:05:21;100841.34;;;-4.90;84.39
59391;BME280;53405;57.012;40.984;2023-01-28T13:08:25;100850.94;;;-4.71;84.33
59391;BME280;53405;57.012;40.984;2023-01-28T13:11:16;100839.03;;;-4.74;83.90
59391;BME280;53405;57.012;40.984;2023-01-28T13:14:04;100838.44;;;-4.80;86.51
59391;BME280;53405;57.012;40.984;2023-01-28T13:16:52;100842.63;;;-4.56;84.20
59391;BME280;53405;57.012;40.984;2023-01-28T13:19:40;100836.09;;;-4.64;85.50
59391;BME280;53405;57.012;40.984;2023-01-28T13:22:36;100843.00;;;-4.65;83.56
59391;BME280;53405;57.012;40.984;2023-01-28T13:25:25;100836.50;;;-4.75;83.85
59391;BME280;53405;57.012;40.984;2023-01-28T13:28:32;100840.16;;;-4.81;82.90
59391;BME280;53405;57.012;40.984;2023-01-28T13:31:22;100830.00;;;-4.84;83.25
59391;BME280;53405;57.012;40.984;2023-01-28T13:34:37;100836.88;;;-4.62;85.10
59391;BME280;53405;57.012;40.984;2023-01-28T13:37:33;100827.50;;;-4.63;82.79
59391;BME280;53405;57.012;40.984;2023-01-28T13:40:26;100820.09;;;-4.71;82.98
59391;BME280;53405;57.012;40.984;2023-01-28T13:43:34;100825.97;;;-4.47;84.24
59391;BME280;53405;57.012;40.984;2023-01-28T13:46:28;100816.66;;;-4.49;83.36
59391;BME280;53405;57.012;40.984;2023-01-28T13:49:27;100784.22;;;-4.74;82.22
59391;BME280;53405;57.012;40.984;2023-01-28T13:52:23;100806.75;;;-4.81;82.45
59391;BME280;53405;57.012;40.984;2023-01-28T13:55:19;100807.28;;;-4.95;84.88
59391;BME280;53405;57.012;40.984;2023-01-28T14:19:43;100797.25;;;-4.79;85.13
59391;BME280;53405;57.012;40.984;2023-01-28T14:22:31;100789.34;;;-4.96;86.11
59391;BME280;53405;57.012;40.984;2023-01-28T14:25:35;100790.19;;;-4.74;87.17
59391;BME280;53405;57.012;40.984;2023-01-28T14:31:38;100786.38;;;-4.63;85.56
59391;BME280;53405;57.012;40.984;2023-01-28T14:34:32;100779.69;;;-4.90;85.90
59391;BME280;53405;57.012;40.984;2023-01-28T14:37:24;100774.25;;;-4.82;86.52
59391;BME280;53405;57.012;40.984;2023-01-28T14:40:15;100784.25;;;-4.54;86.03
59391;BME280;53405;57.012;40.984;2023-01-28T14:43:06;100791.13;;;-4.54;85.44
59391;BME280;53405;57.012;40.984;2023-01-28T14:46:20;100789.66;;;-4.60;84.79
59391;BME280;53405;57.012;40.984;2023-01-28T14:49:20;100796.09;;;-4.72;85.01
59391;BME280;53405;57.012;40.984;2023-01-28T14:58:32;100788.38;;;-4.94;84.32
59391;BME280;53405;57.012;40.984;2023-01-28T15:01:26;100787.38;;;-4.67;86.94
59391;BME280;53405;57.012;40.984;2023-01-28T15:04:32;100779.31;;;-4.80;86.20
59391;BME280;53405;57.012;40.984;2023-01-28T15:07:24;100786.50;;;-4.66;86.67
59391;BME280;53405;57.012;40.984;2023-01-28T15:13:12;100780.81;;;-4.32;85.42
59391;BME280;53405;57.012;40.984;2023-01-28T15:16:01;100784.81;;;-4.25;84.30
59391;BME280;53405;57.012;40.984;2023-01-28T15:18:49;100787.94;;;-4.39;83.42
59391;BME280;53405;57.012;40.984;2023-01-28T15:21:37;100779.66;;;-4.67;84.48
59391;BME280;53405;57.012;40.984;2023-01-28T15:24:25;100771.56;;;-4.36;85.45
59391;BME280;53405;57.012;40.984;2023-01-28T15:27:16;100775.75;;;-4.33;84.81
59391;BME280;53405;57.012;40.984;2023-01-28T15:30:25;100777.47;;;-4.34;82.86
59391;BME280;53405;57.012;40.984;2023-01-28T15:33:15;100776.06;;;-4.41;84.30
59391;BME280;53405;57.012;40.984;2023-01-28T15:36:04;100772.63;;;-4.42;85.00
59391;BME280;53405;57.012;40.984;2023-01-28T15:38:53;100768.41;;;-4.43;84.02
59391;BME280;53405;57.012;40.984;2023-01-28T15:41:44;100748.53;;;-4.39;85.10
59391;BME280;53405;57.012;40.984;2023-01-28T15:44:36;100765.25;;;-4.29;84.75
59391;BME280;53405;57.012;40.984;2023-01-28T15:47:27;100743.56;;;-4.44;84.84
59391;BME280;53405;57.012;40.984;2023-01-28T15:50:23;100761.97;;;-4.32;85.35
59391;BME280;53405;57.012;40.984;2023-01-28T15:53:12;100763.84;;;-4.15;85.14
59391;BME280;53405;57.012;40.984;2023-01-28T15:56:09;100760.31;;;-4.13;84.03
59391;BME280;53405;57.012;40.984;2023-01-28T15:59:22;100758.81;;;-4.39;84.86
59391;BME280;53405;57.012;40.984;2023-01-28T16:02:21;100754.31;;;-4.13;84.70
59391;BME280;53405;57.012;40.984;2023-01-28T16:05:33;100770.25;;;-4.26;83.35
59391;BME280;53405;57.012;40.984;2023-01-28T16:08:28;100750.44;;;-4.65;84.94
59391;BME280;53405;57.012;40.984;2023-01-28T16:11:24;100726.56;;;-4.68;85.05
59391;BME280;53405;57.012;40.984;2023-01-28T16:14:41;100745.00;;;-4.37;85.93
59391;BME280;53405;57.012;40.984;2023-01-28T16:17:36;100727.00;;;-4.37;84.86
59391;BME280;53405;57.012;40.984;2023-01-28T16:20:27;100741.81;;;-4.02;84.37
59391;BME280;53405;57.012;40.984;2023-01-28T16:23:22;100743.50;;;-4.22;82.93
59391;BME280;53405;57.012;40.984;2023-01-28T16:26:22;100723.00;;;-4.23;83.52
59391;BME280;53405;57.012;40.984;2023-01-28T16:29:14;100736.69;;;-4.23;82.96
59391;BME280;53405;57.012;40.984;2023-01-28T16:32:33;100731.88;;;-4.30;82.91
59391;BME280;53405;57.012;40.984;2023-01-28T16:35:25;100730.66;;;-4.42;83.27